aviador You're here:

KSUE Decoded Metar

STURGEON BAY in WI, USA
Report Time2018-02-25 10:56:00
UTC Time2018-02-25 11:28:36
Flight Rules mvfr MVFR
Wind240° at 20 Gusting to 29 kt
W.Decomp.*RWY 28: 16.0 kt HW 12 kt LCW
RWY 20: 14.6 kt HW 13.6 kt RCW
W.Rank240° ranks 7
Current wind is above 240° avg. (8.8)
Visibility9999 m
Phenomena:N/A
Clouds:Broken 014 Hf
Broken 024 Hf
Expected CloudBase > 800 ft AGL from Temp-Dew spread
Ceiling1,400 ft
Temp01°C (ISA -13)
Dew Point-1°C (87% RH)
AAT-8.3°C
QNH994 hPa
Density Alt-69 ft
Elevation725 ft
Report Wrong Elevation
Raw Report
METAR KSUE 251056Z AUTO 24020G29KT 10SM BKN014 BKN024 01/M01 A2935
RMK AO2 PK WND 24033/1006 SLP964 T00111011 FZRANO=

Extra information for KSUE:More info

Metar Taf Metar & Taf Last 4 Metars F.Rules Stats Wind Profile Meteogram Temp Stats Airport Information Weather charts Add Link Nearby VenuesMetar ALERT Operation Metar Decoded Social comments

AIRNAV info for KSUE